LTBO

Details ICAO LTBO (USQ)
Name USAK
Region Turkey
Timezone Europe/Istanbul (UTC+3.0)
Plans Departing 13
Arriving 16
Stats Elevation 2,897 ft / 883 m (AMSL)
Location 38.681477° 29.471675°
Runways 1
Magnetic Variation 5.230° E
Sunrise 2018-06-19 02:38:33 UTC / 2018-06-19 05:38:33 Local
Sunset 2018-06-19 17:30:50 UTC / 2018-06-19 20:30:50 Local
Advertisement - Login to hide

Runways

ID Width Length Bearing (true) Bearing (mag) Surface Threshold Offset Overrun Length
09 98 ft / 30 m 8,366 ft / 2,550 m 90.95° 85.72° Concrete 0 ft / 0 m 98 ft / 30 m
27 98 ft / 30 m 8,366 ft / 2,550 m 270.97° 265.74° Concrete 0 ft / 0 m 98 ft / 30 m

Map

Weather


0- 5 10 15 20 25 30 35+ Temperature / ° C

Clouds and Precipitation
Forecast for 2018-06-19 18:00 UTC. Updated 4 hours ago

Ground ~20,000 ft ~40,000 ft Winds

METAR

LTBO 191850Z 16004KT 130V190 9999 FEW027CB SCT030 BKN100 15/13 Q1016

TAF

Not found

Frequencies

Tower 121.70 MHz TWR
Approach 132.05 MHz MENDERES APP
Tower 121.42 MHz TWR
Warning: Do not use this data for real-world aviation or navigation. No guarantee of current accuracy is given.